Surrey, North Dakota
Current Conditions -  °F | °C
As of 2:54 AM on Friday 24 Oct 2014 (Local Time) from KMOT Reporting Station
Clear Clear  
Wind Chill: 53°   Ceiling: Unl
Heat Index: 53°   Visibility: 10mi
Dew Point: 33°   Wind: 13mph
Humidity: 47%   Direction: 220°SW
Pressure: 29.75"   Gusts: NA
Location:  48.24°N, 101.13°W
Report Text: KMOT 240754Z AUTO 22011KT 10SM CLR 12/01 A2975 RMK AO2 SLP075 T01170006
Loading
Personal Weather Stations






























Interactive Weather Map
Tropical Storm Tracking
New forecast layout! Learn more

10-Day Weather Forecast

Advertisements
Track Severe Weather on mobile